PORTS® Data Listing: 9414750 Alameda, CA

CO-OPS RAW PORTS DATA

************************      PRELIMINARY DATA      ************************** 

     THIS RAW DATA HAS NOT BEEN SUBJECT TO THE NATIONAL OCEAN SERVICE'S        
     QUALITY CONTROL OR QUALITY ASSURANCE PROCEDURES AND DOES NOT MEET         
     THE CRITERIA AND STANDARDS OF OFFICIAL NATIONAL OCEAN SERVICE             
     DATA.  IT IS RELEASED FOR LIMITED PUBLIC USE AS PRELIMINARY DATA TO       
     BE USED ONLY WITH APPROPRIATE CAUTION.                                    

************************      PRELIMINARY DATA      ************************** 


       CD   -   Calendar date
       T    -   Time
       TZ   -   Timezone
       PW   -   Predicted water level (feet above MLLW)
       OW   -   Observed water level (feet above MLLW)
       WS   -   Wind speed (knots)
       WD   -   Wind direction (degrees true)
       WG   -   Wind gust (knots)
       AT   -   Air temperature (degrees farenheit)
       WT   -   Water temperature (degrees farenheit)
       AP   -   Air pressure (millibars)
       SA   -   Salinty (PSU - Practical Salinity Units)
       SG   -   Specific gravity
       RH   -   Relative humidity
       AG   -   Air gap (feet)
       VI   -   Visibility (nautical miles)

       ** NOTE **
       A variable that has its data fields filled with "9"s, indicates that
       data was not collected for that sample period.
       **********


STATION NAME: Alameda (9414750)
****************************************************************************************************
    CD       T    TZ    PW     OW    WS   WD   WG    AT    WT    AP    SA    SG     RH    AG   VI
****************************************************************************************************
2020/02/16 07:24 PST    5.59   5.47    2   95    3  49.5  54.9 1024.5 -9.9 -9.999 -99.9 -99.99 -9.99
2020/02/16 07:30 PST    5.48   5.33    3  100    4  49.5  54.9 1024.5 -9.9 -9.999 -99.9 -99.99 -9.99
2020/02/16 07:36 PST    5.37   5.16    4   98    5  49.8  54.9 1024.4 -9.9 -9.999 -99.9 -99.99 -9.99
2020/02/16 07:42 PST    5.25   5.02    4   91    5  49.8  54.9 1024.5 -9.9 -9.999 -99.9 -99.99 -9.99
2020/02/16 07:48 PST    5.13   4.89    4   91    5  50.0  54.9 1024.5 -9.9 -9.999 -99.9 -99.99 -9.99
2020/02/16 07:54 PST    5.00   4.84    5  106    7  50.5  54.9 1024.5 -9.9 -9.999 -99.9 -99.99 -9.99
2020/02/16 08:00 PST    4.88   4.74    5  104    7  50.9  54.9 1024.6 -9.9 -9.999 -99.9 -99.99 -9.99
2020/02/16 08:06 PST    4.75   4.59    3  105    5  51.1  54.9 1024.8 -9.9 -9.999 -99.9 -99.99 -9.99
2020/02/16 08:12 PST    4.61   4.40    2  106    4  51.3  54.9 1024.9 -9.9 -9.999 -99.9 -99.99 -9.99
2020/02/16 08:18 PST    4.48   4.26    3  113    3  51.4  54.9 1025.0 -9.9 -9.999 -99.9 -99.99 -9.99
2020/02/16 08:24 PST    4.35   4.14    3  107    3  51.6  54.9 1024.9 -9.9 -9.999 -99.9 -99.99 -9.99
2020/02/16 08:30 PST    4.21   4.02    1  123    3  52.5  54.9 1024.8 -9.9 -9.999 -99.9 -99.99 -9.99
2020/02/16 08:36 PST    4.07   3.84    2  128    2  53.1  54.9 1024.9 -9.9 -9.999 -99.9 -99.99 -9.99
2020/02/16 08:42 PST    3.94   3.68    3  133    4  52.3  54.9 1025.0 -9.9 -9.999 -99.9 -99.99 -9.99
2020/02/16 08:48 PST    3.80   3.53    2  115    3  52.5  54.9 1025.0 -9.9 -9.999 -99.9 -99.99 -9.99
2020/02/16 08:54 PST    3.66   3.42    3  126    4  52.5  54.9 1025.0 -9.9 -9.999 -99.9 -99.99 -9.99
2020/02/16 09:00 PST    3.52   3.31    4  113    5  52.3  54.9 1024.9 -9.9 -9.999 -99.9 -99.99 -9.99
2020/02/16 09:06 PST    3.39   3.19    3  117    4  52.5  54.9 1024.9 -9.9 -9.999 -99.9 -99.99 -9.99
2020/02/16 09:12 PST    3.25   3.03    3  124    4  52.5  54.9 1025.0 -9.9 -9.999 -99.9 -99.99 -9.99
2020/02/16 09:18 PST    3.12   2.87    2  124    3  52.9  54.9 1025.1 -9.9 -9.999 -99.9 -99.99 -9.99
2020/02/16 09:24 PST    2.99   2.74    3  123    4  52.7  54.9 1024.9 -9.9 -9.999 -99.9 -99.99 -9.99
2020/02/16 09:30 PST    2.86   2.61    3  142    4  52.7  54.9 1024.8 -9.9 -9.999 -99.9 -99.99 -9.99
2020/02/16 09:36 PST    2.73   2.50    3  168    4  52.9  54.9 1024.7 -9.9 -9.999 -99.9 -99.99 -9.99
2020/02/16 09:42 PST    2.60   2.40    3  143    4  52.7  54.9 1024.7 -9.9 -9.999 -99.9 -99.99 -9.99
2020/02/16 09:48 PST    2.48   2.30    3  157    4  52.5  54.9 1024.6 -9.9 -9.999 -99.9 -99.99 -9.99
2020/02/16 09:54 PST    2.35   2.17    3  163    4  52.5  54.9 1024.6 -9.9 -9.999 -99.9 -99.99 -9.99
2020/02/16 10:00 PST    2.23   2.07    3  145    4  52.7  54.9 1024.6 -9.9 -9.999 -99.9 -99.99 -9.99
2020/02/16 10:06 PST    2.12   1.96    2  113    4  53.1  54.9 1024.7 -9.9 -9.999 -99.9 -99.99 -9.99
2020/02/16 10:12 PST    2.00   1.85    2  156    3  53.4  54.9 1024.8 -9.9 -9.999 -99.9 -99.99 -9.99
2020/02/16 10:18 PST    1.89   1.73    2  125    3  53.6  54.9 1024.8 -9.9 -9.999 -99.9 -99.99 -9.99
2020/02/16 10:24 PST    1.78   1.62    2  120    3  54.0  54.9 1024.8 -9.9 -9.999 -99.9 -99.99 -9.99
2020/02/16 10:30 PST    1.67   1.52    3  128    5  53.6  54.9 1024.6 -9.9 -9.999 -99.9 -99.99 -9.99
2020/02/16 10:36 PST    1.57   1.44    4  122    5  53.6  55.0 1024.6 -9.9 -9.999 -99.9 -99.99 -9.99
2020/02/16 10:42 PST    1.47   1.36    4  122    5  53.8  55.0 1024.5 -9.9 -9.999 -99.9 -99.99 -9.99
2020/02/16 10:48 PST    1.38   1.23    4  120    5  53.6  55.0 1024.4 -9.9 -9.999 -99.9 -99.99 -9.99
2020/02/16 10:54 PST    1.28   1.10    4  124    6  53.6  55.0 1024.2 -9.9 -9.999 -99.9 -99.99 -9.99
2020/02/16 11:00 PST    1.20   1.01    4  130    6  54.0  55.0 1024.2 -9.9 -9.999 -99.9 -99.99 -9.99
2020/02/16 11:06 PST    1.11   0.93    3  122    5  54.3  55.0 1024.3 -9.9 -9.999 -99.9 -99.99 -9.99
2020/02/16 11:12 PST    1.03   0.88    3  128    4  54.5  55.0 1024.4 -9.9 -9.999 -99.9 -99.99 -9.99
2020/02/16 11:18 PST    0.95   0.82    4  156    5  54.5  55.0 1024.5 -9.9 -9.999 -99.9 -99.99 -9.99
2020/02/16 11:24 PST    0.88   0.74    3  119    4  54.3  55.0 1024.4 -9.9 -9.999 -99.9 -99.99 -9.99
2020/02/16 11:30 PST    0.81   0.66    3  121    4  54.7  55.0 1024.3 -9.9 -9.999 -99.9 -99.99 -9.99
2020/02/16 11:36 PST    0.75   0.60    3  121    5  54.7  55.0 1024.1 -9.9 -9.999 -99.9 -99.99 -9.99
2020/02/16 11:42 PST    0.69   0.55    3  129    5  54.7  55.0 1024.1 -9.9 -9.999 -99.9 -99.99 -9.99
2020/02/16 11:48 PST    0.64   0.50    3  125    5  54.9  55.0 1024.0 -9.9 -9.999 -99.9 -99.99 -9.99
2020/02/16 11:54 PST    0.59   0.45    3  141    5  55.0  55.0 1024.0 -9.9 -9.999 -99.9 -99.99 -9.99
2020/02/16 12:00 PST    0.54   0.40    4  122    5  54.9  55.0 1023.9 -9.9 -9.999 -99.9 -99.99 -9.99
2020/02/16 12:06 PST    0.51   0.38    3  123    6  55.0  55.0 1023.7 -9.9 -9.999 -99.9 -99.99 -9.99
2020/02/16 12:12 PST    0.47   0.36    3  115    4  55.0  55.0 1023.7 -9.9 -9.999 -99.9 -99.99 -9.99
2020/02/16 12:18 PST    0.44   0.34    3  116    4  55.4  55.0 1023.6 -9.9 -9.999 -99.9 -99.99 -9.99
2020/02/16 12:24 PST    0.42   0.29    2  119    4  55.6  55.0 1023.4 -9.9 -9.999 -99.9 -99.99 -9.99
2020/02/16 12:30 PST    0.40   0.27    2  185    4  56.1  55.0 1023.3 -9.9 -9.999 -99.9 -99.99 -9.99
2020/02/16 12:36 PST    0.39   0.26    2  175    3  56.3  55.2 1023.2 -9.9 -9.999 -99.9 -99.99 -9.99
2020/02/16 12:42 PST    0.38   0.26    3  147    4  56.3  55.2 1023.1 -9.9 -9.999 -99.9 -99.99 -9.99
2020/02/16 12:48 PST    0.38   0.24    2  192    5  56.7  55.2 1023.0 -9.9 -9.999 -99.9 -99.99 -9.99
2020/02/16 12:54 PST    0.38   0.19    2  178    4  56.7  55.2 1022.8 -9.9 -9.999 -99.9 -99.99 -9.99
2020/02/16 13:00 PST    0.39   0.14    3  168    5  56.5  55.2 1022.7 -9.9 -9.999 -99.9 -99.99 -9.99
2020/02/16 13:06 PST    0.40   0.13    4  250    7  57.2  55.2 1022.7 -9.9 -9.999 -99.9 -99.99 -9.99
2020/02/16 13:12 PST    0.42   0.15    4  247    6  57.4  55.2 1022.7 -9.9 -9.999 -99.9 -99.99 -9.99
2020/02/16 13:18 PST    0.45   0.21    4  243    6  57.4  55.2 1022.6 -9.9 -9.999 -99.9 -99.99 -9.99
2020/02/16 13:24 PST    0.48   0.26    5  282    6  57.6  55.2 1022.5 -9.9 -9.999 -99.9 -99.99 -9.99
2020/02/16 13:30 PST    0.51   0.29    5  281    7  57.4  55.2 1022.5 -9.9 -9.999 -99.9 -99.99 -9.99
2020/02/16 13:36 PST    0.55   0.32    4  274    6  57.9  55.2 1022.4 -9.9 -9.999 -99.9 -99.99 -9.99
2020/02/16 13:42 PST    0.59   0.38    4  279    5  58.3  55.2 1022.4 -9.9 -9.999 -99.9 -99.99 -9.99
2020/02/16 13:48 PST    0.64   0.45    4  281    6  58.3  55.2 1022.3 -9.9 -9.999 -99.9 -99.99 -9.99
2020/02/16 13:54 PST    0.69   0.48    4  270    6  58.6  55.2 1022.2 -9.9 -9.999 -99.9 -99.99 -9.99
2020/02/16 14:00 PST    0.74   0.54    4  255    5  58.5  55.2 1022.1 -9.9 -9.999 -99.9 -99.99 -9.99
2020/02/16 14:06 PST    0.80   0.65    4  253    6  58.5  55.2 1022.0 -9.9 -9.999 -99.9 -99.99 -9.99
2020/02/16 14:12 PST    0.86   0.78    4  248    5  58.1  55.2 1022.0 -9.9 -9.999 -99.9 -99.99 -9.99
2020/02/16 14:18 PST    0.93   0.87    4  233    5  57.7  55.2 1021.9 -9.9 -9.999 -99.9 -99.99 -9.99
2020/02/16 14:24 PST    1.00   0.94    4  245    5  57.9  55.0 1021.9 -9.9 -9.999 -99.9 -99.99 -9.99
2020/02/16 14:30 PST    1.07   0.98    4  240    5  58.1  55.0 1021.9 -9.9 -9.999 -99.9 -99.99 -9.99
2020/02/16 14:36 PST    1.14   1.05    4  242    4  58.1  55.0 1021.8 -9.9 -9.999 -99.9 -99.99 -9.99
2020/02/16 14:42 PST    1.22   1.12    4  237    5  58.3  55.0 1021.8 -9.9 -9.999 -99.9 -99.99 -9.99
2020/02/16 14:48 PST    1.30   1.22    4  239    5  58.1  55.0 1021.8 -9.9 -9.999 -99.9 -99.99 -9.99
2020/02/16 14:54 PST    1.38   1.33    4  245    6  58.1  55.0 1021.7 -9.9 -9.999 -99.9 -99.99 -9.99
2020/02/16 15:00 PST    1.46   1.45    4  243    5  58.3  54.9 1021.7 -9.9 -9.999 -99.9 -99.99 -9.99
2020/02/16 15:06 PST    1.55   1.53    4  239    4  58.1  54.9 1021.6 -9.9 -9.999 -99.9 -99.99 -9.99
2020/02/16 15:12 PST    1.64   1.62    3  243    4  57.7  54.9 1021.5 -9.9 -9.999 -99.9 -99.99 -9.99
2020/02/16 15:18 PST    1.73   1.70    3  252    4  57.9  54.9 1021.6 -9.9 -9.999 -99.9 -99.99 -9.99
2020/02/16 15:24 PST    1.82   1.82    4  240    4  57.9  54.9 1021.6 -9.9 -9.999 -99.9 -99.99 -9.99
2020/02/16 15:30 PST    1.91   1.95    4  244    5  58.1  54.7 1021.5 -9.9 -9.999 -99.9 -99.99 -9.99
2020/02/16 15:36 PST    2.00   2.08    3  263    6  59.0  54.7 1021.5 -9.9 -9.999 -99.9 -99.99 -9.99
2020/02/16 15:42 PST    2.10   2.18    6  283   11  58.1  54.7 1021.5 -9.9 -9.999 -99.9 -99.99 -9.99
2020/02/16 15:48 PST    2.19   2.26    6  280    9  58.1  54.7 1021.4 -9.9 -9.999 -99.9 -99.99 -9.99
2020/02/16 15:54 PST    2.29   2.35    7  283    9  57.6  54.7 1021.4 -9.9 -9.999 -99.9 -99.99 -9.99
2020/02/16 16:00 PST    2.38   2.48    6  281    9  57.2  54.7 1021.4 -9.9 -9.999 -99.9 -99.99 -9.99
2020/02/16 16:06 PST    2.48   2.62    6  280    9  57.4  54.7 1021.4 -9.9 -9.999 -99.9 -99.99 -9.99
2020/02/16 16:12 PST    2.58   2.70    6  278    7  57.9  54.9 1021.3 -9.9 -9.999 -99.9 -99.99 -9.99
2020/02/16 16:18 PST    2.68   2.76    6  277    6  57.6  54.9 1021.3 -9.9 -9.999 -99.9 -99.99 -9.99
2020/02/16 16:24 PST    2.77   2.85    5  277    6  57.6  55.0 1021.2 -9.9 -9.999 -99.9 -99.99 -9.99
2020/02/16 16:30 PST    2.87   2.96    5  276    7  57.6  55.4 1021.2 -9.9 -9.999 -99.9 -99.99 -9.99
2020/02/16 16:36 PST    2.97   3.04    4  288    6  58.3  55.4 1021.1 -9.9 -9.999 -99.9 -99.99 -9.99
2020/02/16 16:42 PST    3.07   3.14    5  289    6  58.3  55.6 1021.2 -9.9 -9.999 -99.9 -99.99 -9.99
2020/02/16 16:48 PST    3.16   3.25    5  287    6  58.5  55.6 1021.2 -9.9 -9.999 -99.9 -99.99 -9.99
2020/02/16 16:54 PST    3.26   3.32    5  278    7  57.7  55.6 1021.1 -9.9 -9.999 -99.9 -99.99 -9.99
2020/02/16 17:00 PST    3.35   3.39    5  279    7  57.2  55.8 1021.1 -9.9 -9.999 -99.9 -99.99 -9.99
2020/02/16 17:06 PST    3.45   3.50    6  284    7  56.5  55.8 1021.1 -9.9 -9.999 -99.9 -99.99 -9.99
2020/02/16 17:12 PST    3.54   3.58    5  283    7  56.3  55.8 1021.1 -9.9 -9.999 -99.9 -99.99 -9.99
2020/02/16 17:18 PST    3.63   3.68    4  291    6  56.1  55.8 1021.1 -9.9 -9.999 -99.9 -99.99 -9.99
2020/02/16 17:24 PST    3.71   3.79    6  286    7  56.1  55.9 1021.2 -9.9 -9.999 -99.9 -99.99 -9.99
2020/02/16 17:30 PST    3.80   3.88    5  283    8  55.9  55.9 1021.2 -9.9 -9.999 -99.9 -99.99 -9.99
2020/02/16 17:36 PST    3.88   3.93    5  285    7  55.9  56.1 1021.3 -9.9 -9.999 -99.9 -99.99 -9.99
2020/02/16 17:42 PST    3.96   4.00    4  283    6  55.9  56.1 1021.3 -9.9 -9.999 -99.9 -99.99 -9.99
2020/02/16 17:48 PST    4.04   4.07    4  284    6  55.9  56.1 1021.3 -9.9 -9.999 -99.9 -99.99 -9.99
2020/02/16 17:54 PST    4.11   4.15    6  282    8  55.6  56.1 1021.3 -9.9 -9.999 -99.9 -99.99 -9.99
2020/02/16 18:00 PST    4.18   4.21    5  285    8  55.4  56.1 1021.2 -9.9 -9.999 -99.9 -99.99 -9.99
2020/02/16 18:06 PST    4.25   4.27    4  283    6  55.2  56.1 1021.2 -9.9 -9.999 -99.9 -99.99 -9.99
2020/02/16 18:12 PST    4.31   4.33    4  285    6  55.0  56.1 1021.2 -9.9 -9.999 -99.9 -99.99 -9.99
2020/02/16 18:18 PST    4.37   4.36    4  282    6  55.0  56.1 1021.3 -9.9 -9.999 -99.9 -99.99 -9.99
2020/02/16 18:24 PST    4.42   4.38    4  283    6  55.0  55.9 1021.3 -9.9 -9.999 -99.9 -99.99 -9.99
2020/02/16 18:30 PST    4.47   4.44    2  288    5  55.2  55.9 1021.4 -9.9 -9.999 -99.9 -99.99 -9.99
2020/02/16 18:36 PST    4.52   4.51    3   23    4  55.4  55.9 1021.4 -9.9 -9.999 -99.9 -99.99 -9.99
2020/02/16 18:42 PST    4.56   4.54    4    1    6  55.6  55.9 1021.5 -9.9 -9.999 -99.9 -99.99 -9.99
2020/02/16 18:48 PST    4.59   4.55    3  319    8  55.8  55.9 1021.5 -9.9 -9.999 -99.9 -99.99 -9.99
2020/02/16 18:54 PST    4.62   4.57    2  326    4  55.6  55.9 1021.5 -9.9 -9.999 -99.9 -99.99 -9.99
2020/02/16 19:00 PST    4.64   4.59    3  331    4  55.6  55.9 1021.4 -9.9 -9.999 -99.9 -99.99 -9.99
2020/02/16 19:06 PST    4.66   4.61    3  310    5  55.4  55.9 1021.4 -9.9 -9.999 -99.9 -99.99 -9.99
2020/02/16 19:12 PST    4.67   4.64    3  309    6  55.4  55.9 1021.4 -9.9 -9.999 -99.9 -99.99 -9.99
2020/02/16 19:18 PST    4.68   4.63    3  317    7  55.2  55.9 1021.4 -9.9 -9.999 -99.9 -99.99 -9.99
2020/02/16 19:24 PST    4.69   4.62    2  336    6  55.2  55.9 1021.4 -9.9 -9.999 -99.9 -99.99 -9.99
2020/02/16 19:30 PST    4.68   4.60    4  327    8  55.2  55.9 1021.3 -9.9 -9.999 -99.9 -99.99 -9.99
2020/02/16 19:36 PST    4.67   4.64    3  338    9  55.0  55.9 1021.4 -9.9 -9.999 -99.9 -99.99 -9.99
2020/02/16 19:42 PST    4.66   4.65    3  306    7  54.9  55.8 1021.3 -9.9 -9.999 -99.9 -99.99 -9.99
2020/02/16 19:48 PST    4.64   4.61    4  284    5  54.7  55.9 1021.3 -9.9 -9.999 -99.9 -99.99 -9.99
2020/02/16 19:54 PST    4.62   4.56    2  345    4  54.7  55.9 1021.3 -9.9 -9.999 -99.9 -99.99 -9.99
2020/02/16 20:00 PST    4.60   4.57    1   11    3  54.7  55.8 1021.3 -9.9 -9.999 -99.9 -99.99 -9.99
2020/02/16 20:06 PST    4.57   4.58    1   59    2  54.7  55.8 1021.5 -9.9 -9.999 -99.9 -99.99 -9.99
2020/02/16 20:12 PST    4.53   4.53    1  168    1  54.5  55.8 1021.4 -9.9 -9.999 -99.9 -99.99 -9.99
2020/02/16 20:18 PST    4.49   4.43    2  253    4  54.5  55.8 1021.4 -9.9 -9.999 -99.9 -99.99 -9.99
2020/02/16 20:24 PST    4.45   4.39    4  216    5  53.6  55.8 1021.4 -9.9 -9.999 -99.9 -99.99 -9.99
2020/02/16 20:30 PST    4.41   4.35    4  213    4  53.4  55.6 1021.2 -9.9 -9.999 -99.9 -99.99 -9.99
2020/02/16 20:36 PST    4.36   4.31    5  226    6  53.2  55.4 1021.1 -9.9 -9.999 -99.9 -99.99 -9.99
2020/02/16 20:42 PST    4.31   4.26    4  239    6  53.2  55.6 1021.2 -9.9 -9.999 -99.9 -99.99 -9.99
2020/02/16 20:48 PST    4.26   4.21    3  242    5  53.2  55.4 1021.5 -9.9 -9.999 -99.9 -99.99 -9.99
2020/02/16 20:54 PST    4.20   4.12    6  236    8  53.1  55.2 1021.6 -9.9 -9.999 -99.9 -99.99 -9.99
2020/02/16 21:00 PST    4.14   4.01    3  250    7  53.2  55.4 1021.6 -9.9 -9.999 -99.9 -99.99 -9.99
2020/02/16 21:06 PST    4.09   3.99    4  242    5  53.2  55.6 1021.5 -9.9 -9.999 -99.9 -99.99 -9.99
2020/02/16 21:12 PST    4.03   3.98    4  244    5  53.2  55.6 1021.7 -9.9 -9.999 -99.9 -99.99 -9.99
2020/02/16 21:18 PST    3.97   3.89    3  263    5  53.2  55.6 1021.8 -9.9 -9.999 -99.9 -99.99 -9.99
2020/02/16 21:24 PST    3.90   3.76    4  250    7  53.2  55.8 1021.7 -9.9 -9.999 -99.9 -99.99 -9.99
2020/02/16 21:30 PST    3.84   3.67    3  246    7  53.1  55.8 1021.7 -9.9 -9.999 -99.9 -99.99 -9.99
2020/02/16 21:36 PST    3.78   3.62    3  268    5  53.1  55.8 1021.7 -9.9 -9.999 -99.9 -99.99 -9.99
2020/02/16 21:42 PST    3.72   3.58    3  241    5  53.1  55.8 1021.7 -9.9 -9.999 -99.9 -99.99 -9.99
2020/02/16 21:48 PST    3.66   3.52    2  303    4  52.9  55.8 1021.8 -9.9 -9.999 -99.9 -99.99 -9.99
2020/02/16 21:54 PST    3.60   3.42    2  278    3  52.9  55.8 1021.8 -9.9 -9.999 -99.9 -99.99 -9.99
2020/02/16 22:00 PST    3.53   3.35    1  266    2  53.1  55.8 1021.8 -9.9 -9.999 -99.9 -99.99 -9.99
2020/02/16 22:06 PST    3.47   3.27    2  290    3  53.1  55.8 1021.8 -9.9 -9.999 -99.9 -99.99 -9.99
2020/02/16 22:12 PST    3.41   3.21    1  303    3  52.9  55.8 1021.7 -9.9 -9.999 -99.9 -99.99 -9.99
2020/02/16 22:18 PST    3.36   3.15    1  288    2  53.1  55.8 1021.7 -9.9 -9.999 -99.9 -99.99 -9.99
2020/02/16 22:24 PST    3.30   3.09    1  313    1  53.1  55.8 1021.7 -9.9 -9.999 -99.9 -99.99 -9.99
2020/02/16 22:30 PST    3.24   3.02    1    7    2  53.1  55.8 1021.6 -9.9 -9.999 -99.9 -99.99 -9.99
2020/02/16 22:36 PST    3.19   2.96    0   75    1  52.9  55.8 1021.6 -9.9 -9.999 -99.9 -99.99 -9.99
2020/02/16 22:42 PST    3.14   2.87    1  111    2  52.5  55.8 1021.5 -9.9 -9.999 -99.9 -99.99 -9.99
2020/02/16 22:48 PST    3.09   2.81    2   92    3  52.2  55.9 1021.4 -9.9 -9.999 -99.9 -99.99 -9.99
2020/02/16 22:54 PST    3.04   2.78    2   97    3  52.0  55.9 1021.4 -9.9 -9.999 -99.9 -99.99 -9.99
2020/02/16 23:00 PST    3.00   2.74    3   89    4  52.0  55.9 1021.4 -9.9 -9.999 -99.9 -99.99 -9.99
2020/02/16 23:06 PST    2.95   2.67    3   91    4  52.0  55.9 1021.3 -9.9 -9.999 -99.9 -99.99 -9.99
2020/02/16 23:12 PST    2.91   2.62    2   89    4  52.0  55.9 1021.3 -9.9 -9.999 -99.9 -99.99 -9.99
2020/02/16 23:18 PST    2.87   2.57    3   87    4  51.8  55.9 1021.4 -9.9 -9.999 -99.9 -99.99 -9.99
2020/02/16 23:24 PST    2.84   2.54    3   91    4  51.8  55.9 1021.3 -9.9 -9.999 -99.9 -99.99 -9.99
2020/02/16 23:30 PST    2.81   2.52    4   90    5  51.6  55.9 1021.2 -9.9 -9.999 -99.9 -99.99 -9.99
2020/02/16 23:36 PST    2.78   2.50    3   89    4  51.4  55.9 1021.1 -9.9 -9.999 -99.9 -99.99 -9.99
2020/02/16 23:42 PST    2.75   2.48    3   90    4  51.6  55.8 1021.1 -9.9 -9.999 -99.9 -99.99 -9.99
2020/02/16 23:48 PST    2.73   2.45    3   97    4  51.4  55.8 1021.2 -9.9 -9.999 -99.9 -99.99 -9.99
2020/02/16 23:54 PST    2.71   2.39    3   90    4  51.3  55.8 1021.2 -9.9 -9.999 -99.9 -99.99 -9.99
2020/02/17 00:00 PST    2.70   2.35    3   89    4  51.3  55.8 1021.0 -9.9 -9.999 -99.9 -99.99 -9.99
2020/02/17 00:06 PST    2.69   2.35    3   93    4  51.3  55.8 1021.0 -9.9 -9.999 -99.9 -99.99 -9.99
2020/02/17 00:12 PST    2.68   2.38    2   96    4  51.3  55.6 1021.0 -9.9 -9.999 -99.9 -99.99 -9.99
2020/02/17 00:18 PST    2.68   2.40    3   91    4  51.3  55.6 1021.1 -9.9 -9.999 -99.9 -99.99 -9.99
2020/02/17 00:24 PST    2.68   2.40    2   97    4  51.1  55.6 1021.0 -9.9 -9.999 -99.9 -99.99 -9.99
2020/02/17 00:30 PST    2.69   2.36    3   93    4  51.1  55.8 1021.0 -9.9 -9.999 -99.9 -99.99 -9.99
2020/02/17 00:36 PST    2.70   2.34    2   91    3  51.1  55.8 1021.0 -9.9 -9.999 -99.9 -99.99 -9.99
2020/02/17 00:42 PST    2.72   2.40    2   98    3  51.3  55.4 1021.0 -9.9 -9.999 -99.9 -99.99 -9.99
2020/02/17 00:48 PST    2.74   2.48    3  105    4  51.3  55.2 1021.0 -9.9 -9.999 -99.9 -99.99 -9.99
2020/02/17 00:54 PST    2.77   2.53    2   94    3  51.3  55.2 1021.0 -9.9 -9.999 -99.9 -99.99 -9.99
2020/02/17 01:00 PST    2.80   2.54    2   98    3  51.1  55.2 1021.1 -9.9 -9.999 -99.9 -99.99 -9.99
2020/02/17 01:06 PST    2.83   2.54    3   93    4  51.3  55.2 1021.1 -9.9 -9.999 -99.9 -99.99 -9.99
2020/02/17 01:12 PST    2.87   2.55    2   91    3  51.1  55.2 1021.0 -9.9 -9.999 -99.9 -99.99 -9.99
2020/02/17 01:18 PST    2.91   2.59    3   88    4  51.1  55.2 1021.0 -9.9 -9.999 -99.9 -99.99 -9.99
2020/02/17 01:24 PST    2.96 -99.99 -999 -999 -999 -99.9 -99.9 -999.9 -9.9 -9.999 -99.9 -99.99 -9.99
2020/02/17 01:30 PST    3.01 -99.99 -999 -999 -999 -99.9 -99.9 -999.9 -9.9 -9.999 -99.9 -99.99 -9.99
2020/02/17 01:36 PST    3.07 -99.99 -999 -999 -999 -99.9 -99.9 -999.9 -9.9 -9.999 -99.9 -99.99 -9.99
2020/02/17 01:42 PST    3.13 -99.99 -999 -999 -999 -99.9 -99.9 -999.9 -9.9 -9.999 -99.9 -99.99 -9.99
2020/02/17 01:48 PST    3.20 -99.99 -999 -999 -999 -99.9 -99.9 -999.9 -9.9 -9.999 -99.9 -99.99 -9.99
2020/02/17 01:54 PST    3.27 -99.99 -999 -999 -999 -99.9 -99.9 -999.9 -9.9 -9.999 -99.9 -99.99 -9.99
2020/02/17 02:00 PST    3.34 -99.99 -999 -999 -999 -99.9 -99.9 -999.9 -9.9 -9.999 -99.9 -99.99 -9.99
2020/02/17 02:06 PST    3.41 -99.99 -999 -999 -999 -99.9 -99.9 -999.9 -9.9 -9.999 -99.9 -99.99 -9.99
2020/02/17 02:12 PST    3.49 -99.99 -999 -999 -999 -99.9 -99.9 -999.9 -9.9 -9.999 -99.9 -99.99 -9.99
2020/02/17 02:18 PST    3.57 -99.99 -999 -999 -999 -99.9 -99.9 -999.9 -9.9 -9.999 -99.9 -99.99 -9.99
2020/02/17 02:24 PST    3.66 -99.99 -999 -999 -999 -99.9 -99.9 -999.9 -9.9 -9.999 -99.9 -99.99 -9.99
2020/02/17 02:30 PST    3.74 -99.99 -999 -999 -999 -99.9 -99.9 -999.9 -9.9 -9.999 -99.9 -99.99 -9.99
2020/02/17 02:36 PST    3.83 -99.99 -999 -999 -999 -99.9 -99.9 -999.9 -9.9 -9.999 -99.9 -99.99 -9.99
2020/02/17 02:42 PST    3.92 -99.99 -999 -999 -999 -99.9 -99.9 -999.9 -9.9 -9.999 -99.9 -99.99 -9.99
2020/02/17 02:48 PST    4.02 -99.99 -999 -999 -999 -99.9 -99.9 -999.9 -9.9 -9.999 -99.9 -99.99 -9.99
2020/02/17 02:54 PST    4.11 -99.99 -999 -999 -999 -99.9 -99.9 -999.9 -9.9 -9.999 -99.9 -99.99 -9.99
2020/02/17 03:00 PST    4.20 -99.99 -999 -999 -999 -99.9 -99.9 -999.9 -9.9 -9.999 -99.9 -99.99 -9.99
2020/02/17 03:06 PST    4.30 -99.99 -999 -999 -999 -99.9 -99.9 -999.9 -9.9 -9.999 -99.9 -99.99 -9.99
2020/02/17 03:12 PST    4.40 -99.99 -999 -999 -999 -99.9 -99.9 -999.9 -9.9 -9.999 -99.9 -99.99 -9.99
2020/02/17 03:18 PST    4.49 -99.99 -999 -999 -999 -99.9 -99.9 -999.9 -9.9 -9.999 -99.9 -99.99 -9.99
2020/02/17 03:24 PST    4.59 -99.99 -999 -999 -999 -99.9 -99.9 -999.9 -9.9 -9.999 -99.9 -99.99 -9.99
2020/02/17 03:30 PST    4.68 -99.99 -999 -999 -999 -99.9 -99.9 -999.9 -9.9 -9.999 -99.9 -99.99 -9.99
2020/02/17 03:36 PST    4.78 -99.99 -999 -999 -999 -99.9 -99.9 -999.9 -9.9 -9.999 -99.9 -99.99 -9.99
2020/02/17 03:42 PST    4.87 -99.99 -999 -999 -999 -99.9 -99.9 -999.9 -9.9 -9.999 -99.9 -99.99 -9.99
2020/02/17 03:48 PST    4.97 -99.99 -999 -999 -999 -99.9 -99.9 -999.9 -9.9 -9.999 -99.9 -99.99 -9.99
2020/02/17 03:54 PST    5.06 -99.99 -999 -999 -999 -99.9 -99.9 -999.9 -9.9 -9.999 -99.9 -99.99 -9.99
2020/02/17 04:00 PST    5.16 -99.99 -999 -999 -999 -99.9 -99.9 -999.9 -9.9 -9.999 -99.9 -99.99 -9.99
2020/02/17 04:06 PST    5.25 -99.99 -999 -999 -999 -99.9 -99.9 -999.9 -9.9 -9.999 -99.9 -99.99 -9.99
2020/02/17 04:12 PST    5.34 -99.99 -999 -999 -999 -99.9 -99.9 -999.9 -9.9 -9.999 -99.9 -99.99 -9.99
2020/02/17 04:18 PST    5.42 -99.99 -999 -999 -999 -99.9 -99.9 -999.9 -9.9 -9.999 -99.9 -99.99 -9.99
2020/02/17 04:24 PST    5.51 -99.99 -999 -999 -999 -99.9 -99.9 -999.9 -9.9 -9.999 -99.9 -99.99 -9.99
2020/02/17 04:30 PST    5.59 -99.99 -999 -999 -999 -99.9 -99.9 -999.9 -9.9 -9.999 -99.9 -99.99 -9.99
2020/02/17 04:36 PST    5.68 -99.99 -999 -999 -999 -99.9 -99.9 -999.9 -9.9 -9.999 -99.9 -99.99 -9.99
2020/02/17 04:42 PST    5.76 -99.99 -999 -999 -999 -99.9 -99.9 -999.9 -9.9 -9.999 -99.9 -99.99 -9.99
2020/02/17 04:48 PST    5.83 -99.99 -999 -999 -999 -99.9 -99.9 -999.9 -9.9 -9.999 -99.9 -99.99 -9.99
2020/02/17 04:54 PST    5.91 -99.99 -999 -999 -999 -99.9 -99.9 -999.9 -9.9 -9.999 -99.9 -99.99 -9.99
2020/02/17 05:00 PST    5.98 -99.99 -999 -999 -999 -99.9 -99.9 -999.9 -9.9 -9.999 -99.9 -99.99 -9.99
2020/02/17 05:06 PST    6.05 -99.99 -999 -999 -999 -99.9 -99.9 -999.9 -9.9 -9.999 -99.9 -99.99 -9.99
2020/02/17 05:12 PST    6.11 -99.99 -999 -999 -999 -99.9 -99.9 -999.9 -9.9 -9.999 -99.9 -99.99 -9.99
2020/02/17 05:18 PST    6.18 -99.99 -999 -999 -999 -99.9 -99.9 -999.9 -9.9 -9.999 -99.9 -99.99 -9.99
2020/02/17 05:24 PST    6.24 -99.99 -999 -999 -999 -99.9 -99.9 -999.9 -9.9 -9.999 -99.9 -99.99 -9.99
2020/02/17 05:30 PST    6.29 -99.99 -999 -999 -999 -99.9 -99.9 -999.9 -9.9 -9.999 -99.9 -99.99 -9.99
2020/02/17 05:36 PST    6.34 -99.99 -999 -999 -999 -99.9 -99.9 -999.9 -9.9 -9.999 -99.9 -99.99 -9.99
2020/02/17 05:42 PST    6.39 -99.99 -999 -999 -999 -99.9 -99.9 -999.9 -9.9 -9.999 -99.9 -99.99 -9.99
2020/02/17 05:48 PST    6.43 -99.99 -999 -999 -999 -99.9 -99.9 -999.9 -9.9 -9.999 -99.9 -99.99 -9.99
2020/02/17 05:54 PST    6.47 -99.99 -999 -999 -999 -99.9 -99.9 -999.9 -9.9 -9.999 -99.9 -99.99 -9.99
2020/02/17 06:00 PST    6.51 -99.99 -999 -999 -999 -99.9 -99.9 -999.9 -9.9 -9.999 -99.9 -99.99 -9.99
2020/02/17 06:06 PST    6.54 -99.99 -999 -999 -999 -99.9 -99.9 -999.9 -9.9 -9.999 -99.9 -99.99 -9.99
2020/02/17 06:12 PST    6.56 -99.99 -999 -999 -999 -99.9 -99.9 -999.9 -9.9 -9.999 -99.9 -99.99 -9.99
2020/02/17 06:18 PST    6.58 -99.99 -999 -999 -999 -99.9 -99.9 -999.9 -9.9 -9.999 -99.9 -99.99 -9.99
2020/02/17 06:24 PST    6.59 -99.99 -999 -999 -999 -99.9 -99.9 -999.9 -9.9 -9.999 -99.9 -99.99 -9.99
2020/02/17 06:30 PST    6.60 -99.99 -999 -999 -999 -99.9 -99.9 -999.9 -9.9 -9.999 -99.9 -99.99 -9.99
2020/02/17 06:36 PST    6.60 -99.99 -999 -999 -999 -99.9 -99.9 -999.9 -9.9 -9.999 -99.9 -99.99 -9.99
2020/02/17 06:42 PST    6.60 -99.99 -999 -999 -999 -99.9 -99.9 -999.9 -9.9 -9.999 -99.9 -99.99 -9.99
2020/02/17 06:48 PST    6.59 -99.99 -999 -999 -999 -99.9 -99.9 -999.9 -9.9 -9.999 -99.9 -99.99 -9.99
2020/02/17 06:54 PST    6.57 -99.99 -999 -999 -999 -99.9 -99.9 -999.9 -9.9 -9.999 -99.9 -99.99 -9.99
2020/02/17 07:00 PST    6.55 -99.99 -999 -999 -999 -99.9 -99.9 -999.9 -9.9 -9.999 -99.9 -99.99 -9.99
2020/02/17 07:06 PST    6.52 -99.99 -999 -999 -999 -99.9 -99.9 -999.9 -9.9 -9.999 -99.9 -99.99 -9.99
2020/02/17 07:12 PST    6.49 -99.99 -999 -999 -999 -99.9 -99.9 -999.9 -9.9 -9.999 -99.9 -99.99 -9.99
2020/02/17 07:18 PST    6.45 -99.99 -999 -999 -999 -99.9 -99.9 -999.9 -9.9 -9.999 -99.9 -99.99 -9.99
2020/02/17 07:24 PST    6.40 -99.99 -999 -999 -999 -99.9 -99.9 -999.9 -9.9 -9.999 -99.9 -99.99 -9.99